首页
METAR-TAF:

METAR-TAF

机场 :

奥尔巴尼, 紐約州, 美国

纬度: 42-44-53N, 经度: 073-48-06W, 海拔: 87米

当前天气观测

该预报发布于1小时和4分钟前的17:51 UTC
风速6节,风向南转南东
温度 11°C
湿度 37%
气压 1020 hPa
能見度: 16.1公里
多云层高于8000英尺
阴天层高于10000英尺

METAR: KALB 281751Z 16006KT 10SM BKN080 OVC100 11/M03 A3012 RMK AO2 SLP203 T01061033 10106 20017 56009

时间: 14:55 (18:55 UTC)

预报

该预报发布于1小时和16分钟前的17:39 UTC
预报有效从28日的 18点(UTC)到 29日的 18点(UTC)
风速7节,风向
能見度: 10公里
多云层高于8000英尺
附近有阵雨
从 28日的 2100点(UTC)
风速6节,风向南转南东
能見度: 9.7公里
阴天层高于3500英尺
小雨, 轻雾
从 29日的 0600点(UTC)
风速6节,风向东南
能見度: 4.8公里
阴天层高于2000英尺
雨, 轻雾

TAF: KALB 281739Z 2818/2918 17007KT P6SM VCSH BKN080 FM282100 16006KT 6SM -RA BR OVC035 FM290600 13006KT 3SM RA BR OVC020

超过4000个机场的气象观测和天气预报(METAR&TAF报告)。

可查询的气象台以黄色和红色小点在地图上表示。

将鼠标移到小点上方,可查看气象台名称。

然后点击查看天气观测和预报。

如需切换地图:点击带黑十字的绿色按钮放大地图;点击带横线的绿色按钮缩小地图;或者点击绿色箭头查看邻近地区的地图。


METAR-TAF: